Time;durP1;ratioP1;P1;durP2;ratioP2;P2;SDS_P1;SDS_P2;PMS_P1;PMS_P2;Temp;Humidity;BMP_temperature;BMP_pressure;BME280_temperature;BME280_humidity;BME280_pressure;Samples;Min_cycle;Max_cycle;Signal;HPM_P1;HPM_P2
2023/01/19 00:01:59;;;;;;;17.90;9.65;;;;;;;;;;5071930;28;20776;-80
2023/01/19 00:04:27;;;;;;;17.75;8.85;;;;;;;;;;5071723;28;20416;-81
2023/01/19 00:06:55;;;;;;;19.30;9.73;;;;;;;;;;5088533;28;20415;-80
2023/01/19 00:09:32;;;;;;;18.35;9.13;;;;;;;;;;5071944;28;20922;-80
2023/01/19 00:12:00;;;;;;;16.98;8.88;;;;;;;;;;5072161;28;20407;-80
2023/01/19 00:14:27;;;;;;;18.33;8.90;;;;;;;;;;5072416;28;20419;-81
2023/01/19 00:17:01;;;;;;;18.05;9.20;;;;;;;;;;5066794;28;20425;-81
2023/01/19 00:19:29;;;;;;;23.30;10.10;;;;;;;;;;5075455;28;20424;-80
2023/01/19 00:21:57;;;;;;;18.08;9.15;;;;;;;;;;5053522;28;20421;-82
2023/01/19 00:24:30;;;;;;;20.02;9.13;;;;;;;;;;5053358;28;20897;-80
2023/01/19 00:26:58;;;;;;;19.17;9.70;;;;;;;;;;5052932;28;20414;-80
2023/01/19 00:29:26;;;;;;;19.13;9.65;;;;;;;;;;5068512;28;20420;-81
2023/01/19 00:31:59;;;;;;;16.70;9.57;;;;;;;;;;5053355;28;20425;-81
2023/01/19 00:34:38;;;;;;;22.85;10.15;;;;;;;;;;5068569;28;20417;-81
2023/01/19 00:37:11;;;;;;;18.40;9.35;;;;;;;;;;5051744;28;20894;-80
2023/01/19 00:39:43;;;;;;;23.40;10.37;;;;;;;;;;5068499;28;21032;-81
2023/01/19 00:44:57;;;;;;;19.02;9.70;;;;;;;;;;5068315;28;20436;-80
2023/01/19 00:47:31;;;;;;;18.03;9.07;;;;;;;;;;5068337;28;20504;-81
2023/01/19 00:50:05;;;;;;;16.80;9.10;;;;;;;;;;5053006;28;20893;-81
2023/01/19 00:52:38;;;;;;;18.67;9.18;;;;;;;;;;5068258;28;20421;-81
2023/01/19 00:55:12;;;;;;;18.80;9.18;;;;;;;;;;5051346;28;20901;-81
2023/01/19 00:57:40;;;;;;;16.80;8.82;;;;;;;;;;5050921;28;20432;-81
2023/01/19 01:00:10;;;;;;;20.63;8.95;;;;;;;;;;5052934;28;20413;-81
2023/01/19 01:02:43;;;;;;;18.73;9.38;;;;;;;;;;5051184;28;20890;-83
2023/01/19 01:05:18;;;;;;;17.75;9.55;;;;;;;;;;5067980;28;20457;-80
2023/01/19 01:07:48;;;;;;;17.38;8.90;;;;;;;;;;5074981;28;20416;-81
2023/01/19 01:10:22;;;;;;;19.15;9.48;;;;;;;;;;5065953;28;20443;-81
2023/01/19 01:12:54;;;;;;;17.80;9.25;;;;;;;;;;5070438;28;20419;-82
2023/01/19 01:15:22;;;;;;;19.58;8.98;;;;;;;;;;5070921;28;20419;-80
2023/01/19 01:17:51;;;;;;;20.77;9.57;;;;;;;;;;5079376;28;20426;-81
2023/01/19 01:20:22;;;;;;;19.00;9.53;;;;;;;;;;5075400;28;20430;-81
2023/01/19 01:22:55;;;;;;;17.92;8.80;;;;;;;;;;5070984;28;20776;-81
2023/01/19 01:25:32;;;;;;;17.45;9.10;;;;;;;;;;5071784;28;20435;-81
2023/01/19 01:28:01;;;;;;;17.38;8.45;;;;;;;;;;5070459;28;20411;-81
2023/01/19 01:30:29;;;;;;;19.48;9.73;;;;;;;;;;5070619;28;20412;-81
2023/01/19 01:33:02;;;;;;;17.08;8.68;;;;;;;;;;5070842;28;20422;-82
2023/01/19 01:35:36;;;;;;;17.67;9.25;;;;;;;;;;5070636;28;20899;-81
2023/01/19 01:38:04;;;;;;;18.00;8.30;;;;;;;;;;5070355;28;20423;-81
2023/01/19 01:40:32;;;;;;;21.10;8.77;;;;;;;;;;5070282;28;20434;-81
2023/01/19 01:43:01;;;;;;;17.75;8.82;;;;;;;;;;5070488;28;20418;-81
2023/01/19 01:45:34;;;;;;;17.33;8.48;;;;;;;;;;5070217;28;20412;-81
2023/01/19 01:48:06;;;;;;;19.38;9.63;;;;;;;;;;5069948;28;20779;-82
2023/01/19 01:50:35;;;;;;;15.55;8.52;;;;;;;;;;5069489;28;20424;-82
2023/01/19 01:53:11;;;;;;;19.08;9.25;;;;;;;;;;5063638;28;20415;-81
2023/01/19 01:55:46;;;;;;;19.58;8.75;;;;;;;;;;5059433;28;20773;-80
2023/01/19 01:58:14;;;;;;;20.00;9.48;;;;;;;;;;5067158;28;20890;-82
2023/01/19 02:03:33;;;;;;;16.30;8.47;;;;;;;;;;5051737;28;20493;-82
2023/01/19 02:06:06;;;;;;;20.98;8.57;;;;;;;;;;5066462;28;20777;-81
2023/01/19 02:14:18;;;;;;;18.90;8.57;;;;;;;;;;5061325;28;20416;-81
2023/01/19 02:16:51;;;;;;;16.33;8.70;;;;;;;;;;5070349;28;20424;-82
2023/01/19 02:19:27;;;;;;;16.60;8.38;;;;;;;;;;5069785;28;20412;-82
2023/01/19 02:22:02;;;;;;;18.38;8.50;;;;;;;;;;5071881;28;20926;-81
2023/01/19 02:24:36;;;;;;;17.90;8.63;;;;;;;;;;5069920;28;20430;-80
2023/01/19 02:27:04;;;;;;;17.02;8.43;;;;;;;;;;5071206;28;21096;-81
2023/01/19 02:29:33;;;;;;;16.40;8.15;;;;;;;;;;5069512;28;20415;-81
2023/01/19 02:32:06;;;;;;;17.77;8.68;;;;;;;;;;5071332;28;20426;-81
2023/01/19 02:34:34;;;;;;;17.67;8.48;;;;;;;;;;5069524;28;20415;-81
2023/01/19 02:37:05;;;;;;;16.02;8.45;;;;;;;;;;5069612;28;20412;-82
2023/01/19 02:39:34;;;;;;;19.30;9.07;;;;;;;;;;5066330;28;20419;-81
2023/01/19 02:42:05;;;;;;;17.60;8.98;;;;;;;;;;5069209;28;20431;-81
2023/01/19 02:44:39;;;;;;;15.65;8.73;;;;;;;;;;5069501;28;20415;-81
2023/01/19 02:47:07;;;;;;;16.65;8.23;;;;;;;;;;5066211;28;20431;-81
2023/01/19 02:49:35;;;;;;;17.30;8.57;;;;;;;;;;5057496;28;20428;-80
2023/01/19 02:52:11;;;;;;;18.02;9.65;;;;;;;;;;5049810;28;20805;-82
2023/01/19 02:54:46;;;;;;;16.80;8.98;;;;;;;;;;5051206;28;20409;-81
2023/01/19 02:57:42;;;;;;;16.83;8.30;;;;;;;;;;5049352;28;20417;-81
2023/01/19 03:00:21;;;;;;;17.98;8.70;;;;;;;;;;5047340;28;20786;-81
2023/01/19 03:02:57;;;;;;;14.35;8.30;;;;;;;;;;5049517;28;20428;-80
2023/01/19 03:05:30;;;;;;;19.15;8.88;;;;;;;;;;5051573;28;20405;-82
2023/01/19 03:08:03;;;;;;;19.33;8.75;;;;;;;;;;5070112;28;20786;-80
2023/01/19 03:10:34;;;;;;;18.35;8.80;;;;;;;;;;5053250;28;20409;-82
2023/01/19 03:13:10;;;;;;;17.83;9.13;;;;;;;;;;5054130;28;20442;-80
2023/01/19 03:15:47;;;;;;;17.65;8.60;;;;;;;;;;5084859;28;20427;-81
2023/01/19 03:18:21;;;;;;;17.38;8.63;;;;;;;;;;5070878;28;20431;-81
2023/01/19 03:20:50;;;;;;;16.70;8.60;;;;;;;;;;5072934;28;20427;-80
2023/01/19 03:23:19;;;;;;;18.80;8.63;;;;;;;;;;5073304;28;20419;-81
2023/01/19 03:25:48;;;;;;;17.33;8.75;;;;;;;;;;5072641;28;20424;-81
2023/01/19 03:28:23;;;;;;;16.25;8.07;;;;;;;;;;5074287;28;20420;-81
2023/01/19 03:30:58;;;;;;;18.33;8.90;;;;;;;;;;5067895;28;20448;-81
2023/01/19 03:33:31;;;;;;;16.27;8.80;;;;;;;;;;5065147;28;20427;-81
2023/01/19 03:36:08;;;;;;;17.30;8.90;;;;;;;;;;5054763;28;20436;-80
2023/01/19 03:38:43;;;;;;;15.73;8.35;;;;;;;;;;5052897;28;20421;-80
2023/01/19 03:41:17;;;;;;;17.05;8.55;;;;;;;;;;5069547;28;20417;-81
2023/01/19 03:43:47;;;;;;;14.23;8.00;;;;;;;;;;5052953;28;20781;-80
2023/01/19 03:46:22;;;;;;;16.88;8.55;;;;;;;;;;5071251;28;20785;-80
2023/01/19 03:48:56;;;;;;;16.27;8.30;;;;;;;;;;5070922;28;20431;-81
2023/01/19 03:51:24;;;;;;;18.73;8.70;;;;;;;;;;5071789;28;20416;-80
2023/01/19 03:53:57;;;;;;;18.38;8.95;;;;;;;;;;5071717;28;20419;-81
2023/01/19 03:56:29;;;;;;;18.20;8.98;;;;;;;;;;5070608;28;20431;-81
2023/01/19 03:58:57;;;;;;;15.00;8.75;;;;;;;;;;5053817;28;20416;-81
2023/01/19 04:01:31;;;;;;;17.65;8.65;;;;;;;;;;5078922;28;20432;-80
2023/01/19 04:04:04;;;;;;;17.85;8.77;;;;;;;;;;5059121;28;20425;-81
2023/01/19 04:06:32;;;;;;;16.83;8.40;;;;;;;;;;5069373;28;20428;-82
2023/01/19 04:08:59;;;;;;;19.08;9.10;;;;;;;;;;5052009;28;20413;-80
2023/01/19 04:11:32;;;;;;;15.90;8.88;;;;;;;;;;5053697;28;20412;-80
2023/01/19 04:14:05;;;;;;;18.17;9.10;;;;;;;;;;5052215;28;20451;-81
2023/01/19 04:16:39;;;;;;;18.05;9.57;;;;;;;;;;5054976;28;20446;-80
2023/01/19 04:19:12;;;;;;;16.27;8.90;;;;;;;;;;5070049;28;20430;-80
2023/01/19 04:21:40;;;;;;;16.23;8.85;;;;;;;;;;5071569;28;20436;-80
2023/01/19 04:24:09;;;;;;;19.08;9.35;;;;;;;;;;5072062;28;20764;-81
2023/01/19 04:26:37;;;;;;;19.83;8.95;;;;;;;;;;5088590;28;20884;-81
2023/01/19 04:29:09;;;;;;;16.43;8.97;;;;;;;;;;5073230;28;20917;-81
2023/01/19 04:31:44;;;;;;;17.35;8.70;;;;;;;;;;5071691;28;20423;-81
2023/01/19 04:34:12;;;;;;;15.75;8.85;;;;;;;;;;5072906;28;20408;-80
2023/01/19 04:36:39;;;;;;;18.30;8.65;;;;;;;;;;5068729;28;20546;-83
2023/01/19 04:39:12;;;;;;;17.50;8.53;;;;;;;;;;5081416;28;20489;-81
2023/01/19 04:41:40;;;;;;;17.92;9.25;;;;;;;;;;5065344;28;20426;-82
2023/01/19 04:44:08;;;;;;;16.92;8.70;;;;;;;;;;5065708;28;20794;-82
2023/01/19 04:46:35;;;;;;;17.55;8.85;;;;;;;;;;5065476;28;20432;-81
2023/01/19 04:49:10;;;;;;;17.90;8.85;;;;;;;;;;5069353;28;20915;-81
2023/01/19 04:51:43;;;;;;;16.50;8.98;;;;;;;;;;5065951;28;20443;-81
2023/01/19 04:54:10;;;;;;;17.55;8.48;;;;;;;;;;5065125;28;20442;-82
2023/01/19 04:56:39;;;;;;;18.73;9.25;;;;;;;;;;5067025;28;20430;-82
2023/01/19 04:59:12;;;;;;;17.70;8.85;;;;;;;;;;5084592;28;21617;-83
2023/01/19 05:01:45;;;;;;;16.63;9.10;;;;;;;;;;5085122;28;20434;-81
2023/01/19 05:04:21;;;;;;;17.73;9.43;;;;;;;;;;5084079;28;20438;-82
2023/01/19 05:06:49;;;;;;;17.33;9.23;;;;;;;;;;5069575;28;20761;-82
2023/01/19 05:09:21;;;;;;;16.93;9.10;;;;;;;;;;5064618;28;20435;-82
2023/01/19 05:11:54;;;;;;;18.63;9.52;;;;;;;;;;5083321;28;20470;-83
2023/01/19 05:14:22;;;;;;;19.65;9.40;;;;;;;;;;5086086;28;20434;-80
2023/01/19 05:16:55;;;;;;;19.60;10.07;;;;;;;;;;5078933;28;20427;-80
2023/01/19 05:19:29;;;;;;;17.33;9.13;;;;;;;;;;5061263;28;20433;-80
2023/01/19 05:21:57;;;;;;;18.43;9.70;;;;;;;;;;5066321;28;20435;-81
2023/01/19 05:24:25;;;;;;;16.27;9.23;;;;;;;;;;5064580;28;20433;-82
2023/01/19 05:26:52;;;;;;;17.45;9.20;;;;;;;;;;5066040;28;20522;-83
2023/01/19 05:29:25;;;;;;;16.20;8.50;;;;;;;;;;5083573;28;20428;-84
2023/01/19 05:31:53;;;;;;;20.20;9.23;;;;;;;;;;5065639;28;20416;-81
2023/01/19 05:34:21;;;;;;;17.40;9.13;;;;;;;;;;5064488;28;20439;-81
2023/01/19 05:36:50;;;;;;;19.27;9.18;;;;;;;;;;5064294;28;20430;-83
2023/01/19 05:39:23;;;;;;;16.52;8.57;;;;;;;;;;5064670;28;20810;-83
2023/01/19 05:41:55;;;;;;;19.23;8.95;;;;;;;;;;5064223;28;20431;-81
2023/01/19 05:44:28;;;;;;;16.50;9.18;;;;;;;;;;5063170;28;20427;-80
2023/01/19 05:47:01;;;;;;;16.25;8.95;;;;;;;;;;5073003;28;20418;-81
2023/01/19 05:49:34;;;;;;;18.25;8.98;;;;;;;;;;5056092;28;20436;-81
2023/01/19 05:52:08;;;;;;;18.27;8.88;;;;;;;;;;5070489;28;20985;-81
2023/01/19 05:54:41;;;;;;;18.02;8.95;;;;;;;;;;5063570;28;20426;-81
2023/01/19 05:57:10;;;;;;;16.70;9.02;;;;;;;;;;5068058;28;20423;-80
2023/01/19 05:59:43;;;;;;;16.07;9.23;;;;;;;;;;5061463;28;20476;-81
2023/01/19 06:02:16;;;;;;;19.17;9.93;;;;;;;;;;5062502;28;20419;-81
2023/01/19 06:04:44;;;;;;;19.42;9.32;;;;;;;;;;5062666;28;20419;-80
2023/01/19 06:07:18;;;;;;;17.23;9.27;;;;;;;;;;5065544;28;20784;-80
2023/01/19 06:09:46;;;;;;;20.45;10.40;;;;;;;;;;5067132;28;22054;-80
2023/01/19 06:12:19;;;;;;;19.60;10.00;;;;;;;;;;5066044;28;21194;-82
2023/01/19 06:14:52;;;;;;;19.50;10.27;;;;;;;;;;5063269;28;20429;-81
2023/01/19 06:17:20;;;;;;;16.23;9.33;;;;;;;;;;5065736;28;20428;-80
2023/01/19 06:19:47;;;;;;;17.67;9.32;;;;;;;;;;5062704;28;20928;-80
2023/01/19 06:22:15;;;;;;;16.85;9.80;;;;;;;;;;5072725;28;20428;-81
2023/01/19 06:24:44;;;;;;;21.77;10.07;;;;;;;;;;5079388;28;20442;-81
2023/01/19 06:27:17;;;;;;;20.35;9.90;;;;;;;;;;5063294;28;20420;-81
2023/01/19 06:29:45;;;;;;;17.53;9.00;;;;;;;;;;5076609;28;20495;-83
2023/01/19 06:32:13;;;;;;;16.52;9.18;;;;;;;;;;5062513;28;20876;-81
2023/01/19 06:34:46;;;;;;;19.15;9.52;;;;;;;;;;5059841;28;20425;-82
2023/01/19 06:37:15;;;;;;;15.95;8.90;;;;;;;;;;5059692;28;20421;-83
2023/01/19 06:39:44;;;;;;;18.48;9.52;;;;;;;;;;5063616;28;20430;-80
2023/01/19 06:42:13;;;;;;;18.88;8.95;;;;;;;;;;5069616;28;20442;-81
2023/01/19 06:44:46;;;;;;;18.05;9.00;;;;;;;;;;5088350;28;20430;-80
2023/01/19 06:47:19;;;;;;;15.63;8.88;;;;;;;;;;5071193;28;20431;-82
2023/01/19 06:49:51;;;;;;;17.55;9.18;;;;;;;;;;5058367;28;20428;-81
2023/01/19 06:52:19;;;;;;;15.75;9.02;;;;;;;;;;5076843;28;20423;-80
2023/01/19 06:54:52;;;;;;;16.55;9.23;;;;;;;;;;5073716;28;20871;-80
2023/01/19 06:57:26;;;;;;;18.17;9.45;;;;;;;;;;5073141;28;20442;-80
2023/01/19 06:59:54;;;;;;;19.20;9.82;;;;;;;;;;5069780;28;20435;-81
2023/01/19 07:02:27;;;;;;;21.27;10.50;;;;;;;;;;5068668;28;20427;-81
2023/01/19 07:04:55;;;;;;;18.42;9.63;;;;;;;;;;5056542;28;20902;-81
2023/01/19 07:07:27;;;;;;;17.58;10.02;;;;;;;;;;5066520;28;20945;-80
2023/01/19 07:09:55;;;;;;;17.45;9.60;;;;;;;;;;5066767;28;20429;-80
2023/01/19 07:12:30;;;;;;;20.58;9.88;;;;;;;;;;5058724;28;20424;-81
2023/01/19 07:15:03;;;;;;;17.98;9.35;;;;;;;;;;5063772;28;20775;-82
2023/01/19 07:17:35;;;;;;;19.52;10.10;;;;;;;;;;5066713;28;20427;-81
2023/01/19 07:20:10;;;;;;;18.98;9.75;;;;;;;;;;5080107;28;20427;-80
2023/01/19 07:22:37;;;;;;;17.85;10.00;;;;;;;;;;5066848;28;20424;-80
2023/01/19 07:25:05;;;;;;;18.38;9.40;;;;;;;;;;5080758;28;20425;-78
2023/01/19 07:27:40;;;;;;;17.65;9.77;;;;;;;;;;5069182;28;20427;-80
2023/01/19 07:30:14;;;;;;;18.27;9.63;;;;;;;;;;5068734;28;20423;-80
2023/01/19 07:32:42;;;;;;;18.85;9.38;;;;;;;;;;5067847;28;20415;-81
2023/01/19 07:35:15;;;;;;;18.52;9.90;;;;;;;;;;5063019;28;20415;-80
2023/01/19 07:37:43;;;;;;;23.30;10.02;;;;;;;;;;5077769;28;20419;-81
2023/01/19 07:40:11;;;;;;;18.10;9.32;;;;;;;;;;5066388;28;20423;-80
2023/01/19 07:42:45;;;;;;;20.93;9.80;;;;;;;;;;5058720;28;20440;-80
2023/01/19 07:45:14;;;;;;;17.52;9.82;;;;;;;;;;5059717;28;20430;-80
2023/01/19 07:47:42;;;;;;;18.48;9.70;;;;;;;;;;5061635;28;20430;-80
2023/01/19 07:50:15;;;;;;;17.95;9.75;;;;;;;;;;5064835;28;20435;-80
2023/01/19 07:52:50;;;;;;;17.40;9.38;;;;;;;;;;5057394;28;20419;-80
2023/01/19 07:55:18;;;;;;;20.30;9.57;;;;;;;;;;5079153;28;20412;-80
2023/01/19 07:57:52;;;;;;;19.38;9.90;;;;;;;;;;5054934;28;20425;-80
2023/01/19 08:00:25;;;;;;;18.95;9.57;;;;;;;;;;5073659;28;20787;-82
2023/01/19 08:02:59;;;;;;;18.77;9.57;;;;;;;;;;5061229;28;20424;-80
2023/01/19 08:05:32;;;;;;;18.30;9.45;;;;;;;;;;5058372;28;20429;-81
2023/01/19 08:08:05;;;;;;;18.50;9.30;;;;;;;;;;5060132;28;20419;-80
2023/01/19 08:10:38;;;;;;;17.55;9.38;;;;;;;;;;5060093;28;20913;-80
2023/01/19 08:13:12;;;;;;;16.55;9.50;;;;;;;;;;5075417;28;20920;-80
2023/01/19 08:15:45;;;;;;;17.15;9.30;;;;;;;;;;5060414;28;20420;-81
2023/01/19 08:18:18;;;;;;;20.03;9.73;;;;;;;;;;5059975;28;20425;-80
2023/01/19 08:20:51;;;;;;;17.35;9.52;;;;;;;;;;5061807;28;20428;-80
2023/01/19 08:23:24;;;;;;;17.80;9.65;;;;;;;;;;5060201;28;20424;-80
2023/01/19 08:25:56;;;;;;;18.40;9.80;;;;;;;;;;5060018;28;20419;-80
2023/01/19 08:28:31;;;;;;;18.23;9.90;;;;;;;;;;5067730;28;20502;-80
2023/01/19 08:30:58;;;;;;;17.38;9.63;;;;;;;;;;5050937;28;20414;-80
2023/01/19 08:33:26;;;;;;;17.95;9.75;;;;;;;;;;5048721;28;20419;-79
2023/01/19 08:35:59;;;;;;;16.05;9.30;;;;;;;;;;5043304;28;20807;-82
2023/01/19 08:38:32;;;;;;;16.13;9.10;;;;;;;;;;5044310;28;20427;-85
2023/01/19 08:41:05;;;;;;;18.58;9.85;;;;;;;;;;5043619;28;20419;-81
2023/01/19 08:43:34;;;;;;;18.77;9.93;;;;;;;;;;5041861;28;20439;-81
2023/01/19 08:46:06;;;;;;;15.13;9.48;;;;;;;;;;5052715;28;20423;-81
2023/01/19 08:48:39;;;;;;;18.38;9.90;;;;;;;;;;5060463;28;20428;-81
2023/01/19 08:51:14;;;;;;;16.42;9.73;;;;;;;;;;5055962;28;20423;-80
2023/01/19 08:53:46;;;;;;;21.48;10.38;;;;;;;;;;5058957;28;20416;-81
2023/01/19 08:56:19;;;;;;;18.85;10.70;;;;;;;;;;5048627;28;20761;-80
2023/01/19 08:58:53;;;;;;;17.35;10.18;;;;;;;;;;5043724;28;20494;-81
2023/01/19 09:01:26;;;;;;;17.73;9.70;;;;;;;;;;5050388;28;21708;-81
2023/01/19 09:03:59;;;;;;;19.30;9.80;;;;;;;;;;5048861;28;21456;-81
2023/01/19 09:06:31;;;;;;;20.10;11.00;;;;;;;;;;5049932;28;20423;-86
2023/01/19 09:09:04;;;;;;;19.33;11.00;;;;;;;;;;5045487;28;20454;-81
2023/01/19 09:11:37;;;;;;;22.33;10.93;;;;;;;;;;5055114;28;20423;-81
2023/01/19 09:14:11;;;;;;;17.52;10.25;;;;;;;;;;5045227;28;20430;-81
2023/01/19 09:16:44;;;;;;;16.95;9.68;;;;;;;;;;5056419;28;20419;-79
2023/01/19 09:19:15;;;;;;;18.88;9.88;;;;;;;;;;5058503;28;20427;-81
2023/01/19 09:21:48;;;;;;;18.77;9.83;;;;;;;;;;5051342;28;20423;-81
2023/01/19 09:24:16;;;;;;;19.20;10.40;;;;;;;;;;5041411;28;20414;-81
2023/01/19 09:26:43;;;;;;;17.23;9.88;;;;;;;;;;5046092;28;20419;-80
2023/01/19 09:29:18;;;;;;;18.55;10.15;;;;;;;;;;5066656;28;20415;-81
2023/01/19 09:31:51;;;;;;;19.38;10.10;;;;;;;;;;5047951;28;20914;-81
2023/01/19 09:34:25;;;;;;;17.95;9.73;;;;;;;;;;5048566;28;20450;-80
2023/01/19 09:36:58;;;;;;;16.35;9.30;;;;;;;;;;5050976;28;20431;-80
2023/01/19 09:39:31;;;;;;;16.60;9.60;;;;;;;;;;5050797;28;20432;-81
2023/01/19 09:42:09;;;;;;;17.45;9.32;;;;;;;;;;5044889;28;20847;-81
2023/01/19 09:44:38;;;;;;;17.60;9.32;;;;;;;;;;5060151;28;20416;-82
2023/01/19 09:47:13;;;;;;;17.90;9.32;;;;;;;;;;5060129;28;20427;-80
2023/01/19 09:49:49;;;;;;;17.40;9.40;;;;;;;;;;5052645;28;20435;-81
2023/01/19 09:52:22;;;;;;;19.08;8.95;;;;;;;;;;5044940;28;20420;-81
2023/01/19 09:54:52;;;;;;;16.52;8.88;;;;;;;;;;5059581;28;21064;-81
2023/01/19 09:57:26;;;;;;;19.83;9.57;;;;;;;;;;5038730;28;20428;-81
2023/01/19 10:00:00;;;;;;;16.42;8.82;;;;;;;;;;5057856;28;20510;-80
2023/01/19 10:02:32;;;;;;;17.20;9.40;;;;;;;;;;5039455;28;21258;-81
2023/01/19 10:05:14;;;;;;;20.58;9.23;;;;;;;;;;5030102;28;20412;-81
2023/01/19 10:07:53;;;;;;;18.33;9.45;;;;;;;;;;5039555;28;20713;-81
2023/01/19 10:10:27;;;;;;;16.17;8.35;;;;;;;;;;5038163;28;20420;-82
2023/01/19 10:13:04;;;;;;;14.73;8.40;;;;;;;;;;5046037;28;20427;-82
2023/01/19 10:15:51;;;;;;;17.05;9.00;;;;;;;;;;5029271;28;20427;-80
2023/01/19 10:18:29;;;;;;;14.43;8.23;;;;;;;;;;5038307;28;21238;-81
2023/01/19 10:21:01;;;;;;;17.05;8.43;;;;;;;;;;5035069;28;20430;-81
2023/01/19 10:23:34;;;;;;;15.40;8.25;;;;;;;;;;5034998;28;20424;-80
2023/01/19 10:26:07;;;;;;;14.68;8.40;;;;;;;;;;5032394;28;20749;-80
2023/01/19 10:28:40;;;;;;;16.52;9.02;;;;;;;;;;5034823;28;20520;-80
2023/01/19 10:31:16;;;;;;;16.08;9.07;;;;;;;;;;5036124;28;20875;-82
2023/01/19 10:33:44;;;;;;;15.50;8.80;;;;;;;;;;5034978;28;20890;-81
2023/01/19 10:36:16;;;;;;;14.73;8.57;;;;;;;;;;5041346;28;20419;-80
2023/01/19 10:38:49;;;;;;;16.33;8.40;;;;;;;;;;5035447;28;20427;-81
2023/01/19 10:41:26;;;;;;;16.40;8.85;;;;;;;;;;5037163;28;20435;-81
2023/01/19 10:44:00;;;;;;;15.40;8.35;;;;;;;;;;5040303;28;20506;-81
2023/01/19 10:46:37;;;;;;;16.98;8.40;;;;;;;;;;5052464;28;21014;-81
2023/01/19 10:49:23;;;;;;;16.83;8.90;;;;;;;;;;5034784;28;20478;-80
2023/01/19 10:51:59;;;;;;;16.58;8.70;;;;;;;;;;5036669;28;20411;-80
2023/01/19 10:54:27;;;;;;;15.67;8.40;;;;;;;;;;5033270;28;20520;-81
2023/01/19 10:57:02;;;;;;;13.95;7.85;;;;;;;;;;5045268;28;20438;-81
2023/01/19 10:59:36;;;;;;;15.40;8.05;;;;;;;;;;5034080;28;21021;-81
2023/01/19 11:02:18;;;;;;;14.32;7.57;;;;;;;;;;5033671;28;20426;-81
2023/01/19 11:04:52;;;;;;;15.85;8.35;;;;;;;;;;5033895;28;21254;-81
2023/01/19 11:07:27;;;;;;;13.55;8.13;;;;;;;;;;5050053;28;20831;-81
2023/01/19 11:10:10;;;;;;;18.47;7.90;;;;;;;;;;5039487;28;21286;-81
2023/01/19 11:12:44;;;;;;;13.13;7.73;;;;;;;;;;5038071;28;20424;-81
2023/01/19 11:15:21;;;;;;;15.68;8.38;;;;;;;;;;5032840;28;20733;-81
2023/01/19 11:17:50;;;;;;;13.95;7.55;;;;;;;;;;5041330;28;20431;-80
2023/01/19 11:20:21;;;;;;;14.85;7.88;;;;;;;;;;5038021;28;20408;-80
2023/01/19 11:23:07;;;;;;;13.57;7.63;;;;;;;;;;5049993;28;21084;-82
2023/01/19 11:25:35;;;;;;;12.30;7.55;;;;;;;;;;5025028;28;21206;-81
2023/01/19 11:28:15;;;;;;;13.18;7.55;;;;;;;;;;5046513;28;21306;-80
2023/01/19 11:30:53;;;;;;;14.07;7.83;;;;;;;;;;5069283;28;20422;-81
2023/01/19 11:33:33;;;;;;;14.75;8.00;;;;;;;;;;5050560;28;20416;-81
2023/01/19 11:36:02;;;;;;;15.07;8.00;;;;;;;;;;5050615;28;22528;-80
2023/01/19 11:38:42;;;;;;;14.50;7.97;;;;;;;;;;5043810;28;20466;-80
2023/01/19 11:41:17;;;;;;;13.43;7.63;;;;;;;;;;5043757;28;20427;-80
2023/01/19 11:43:51;;;;;;;13.40;7.90;;;;;;;;;;5057273;28;20443;-80
2023/01/19 11:46:28;;;;;;;13.15;7.00;;;;;;;;;;5038265;28;20423;-81
2023/01/19 11:49:01;;;;;;;14.52;7.90;;;;;;;;;;5033575;28;20937;-81
2023/01/19 11:51:35;;;;;;;13.55;7.80;;;;;;;;;;5042332;28;20431;-81
2023/01/19 11:54:08;;;;;;;15.77;7.97;;;;;;;;;;5046526;28;20427;-80
2023/01/19 11:56:36;;;;;;;14.15;7.80;;;;;;;;;;5059202;28;20804;-81
2023/01/19 11:59:11;;;;;;;13.43;8.40;;;;;;;;;;5041708;28;20423;-80
2023/01/19 12:01:46;;;;;;;13.93;8.43;;;;;;;;;;5039435;28;20416;-81
2023/01/19 12:04:24;;;;;;;14.05;8.10;;;;;;;;;;5038236;28;20914;-80
2023/01/19 12:06:59;;;;;;;12.38;7.68;;;;;;;;;;5041898;28;20424;-81
2023/01/19 12:09:34;;;;;;;13.13;7.30;;;;;;;;;;5039154;28;20419;-81
2023/01/19 12:12:03;;;;;;;12.77;7.60;;;;;;;;;;5037066;28;20412;-80
2023/01/19 12:14:39;;;;;;;15.02;7.85;;;;;;;;;;5037105;28;20427;-81
2023/01/19 12:17:12;;;;;;;13.63;7.60;;;;;;;;;;5041899;28;20507;-82
2023/01/19 12:19:53;;;;;;;13.13;8.10;;;;;;;;;;5039954;28;20423;-80
2023/01/19 12:22:27;;;;;;;16.13;8.18;;;;;;;;;;5037824;28;20431;-82
2023/01/19 12:25:02;;;;;;;14.25;8.10;;;;;;;;;;5045851;28;20427;-81
2023/01/19 12:27:44;;;;;;;13.95;8.13;;;;;;;;;;5039432;28;20436;-79
2023/01/19 12:30:43;;;;;;;14.43;8.23;;;;;;;;;;5047468;28;21818;-81
2023/01/19 12:33:23;;;;;;;14.35;8.50;;;;;;;;;;5046406;28;20419;-80
2023/01/19 12:36:03;;;;;;;15.70;9.23;;;;;;;;;;5039504;28;20431;-81
2023/01/19 12:38:35;;;;;;;15.88;8.75;;;;;;;;;;5042922;28;20423;-81
2023/01/19 12:41:22;;;;;;;13.73;8.40;;;;;;;;;;5047937;28;21076;-81
2023/01/19 12:44:08;;;;;;;13.85;8.30;;;;;;;;;;5033361;28;21254;-82
2023/01/19 12:46:42;;;;;;;15.27;8.60;;;;;;;;;;5037840;28;20447;-81
2023/01/19 12:49:24;;;;;;;14.68;8.45;;;;;;;;;;5033308;28;20443;-81
2023/01/19 12:52:12;;;;;;;13.73;8.45;;;;;;;;;;5030546;28;20918;-81
2023/01/19 12:54:50;;;;;;;13.45;8.43;;;;;;;;;;5039134;28;20778;-82
2023/01/19 12:57:25;;;;;;;14.30;8.50;;;;;;;;;;5045129;28;20772;-81
2023/01/19 12:59:59;;;;;;;15.32;8.95;;;;;;;;;;5050581;28;20442;-82
2023/01/19 13:02:50;;;;;;;14.25;8.68;;;;;;;;;;5039133;28;20412;-81
2023/01/19 13:05:38;;;;;;;15.60;9.00;;;;;;;;;;5032211;28;21081;-82
2023/01/19 13:08:16;;;;;;;13.40;8.25;;;;;;;;;;5018441;28;20439;-82
2023/01/19 13:11:12;;;;;;;15.48;8.88;;;;;;;;;;5047910;28;20416;-82
2023/01/19 13:14:05;;;;;;;15.57;9.10;;;;;;;;;;5037169;28;20420;-82
2023/01/19 13:16:54;;;;;;;14.95;8.50;;;;;;;;;;5037273;28;20941;-81
2023/01/19 13:19:45;;;;;;;15.77;8.93;;;;;;;;;;5039230;28;20423;-81
2023/01/19 13:22:32;;;;;;;14.10;8.43;;;;;;;;;;5033176;28;20472;-81
2023/01/19 13:25:10;;;;;;;14.73;8.77;;;;;;;;;;5033083;28;20475;-82
2023/01/19 13:27:43;;;;;;;14.48;8.48;;;;;;;;;;5024246;28;20845;-81
2023/01/19 13:30:17;;;;;;;16.65;8.73;;;;;;;;;;5031953;28;20432;-82
2023/01/19 13:32:50;;;;;;;16.60;8.40;;;;;;;;;;5029773;28;20431;-81
2023/01/19 13:35:19;;;;;;;15.57;8.50;;;;;;;;;;5033406;28;20418;-81
2023/01/19 13:37:47;;;;;;;15.95;8.65;;;;;;;;;;5035445;28;20415;-81
2023/01/19 13:40:18;;;;;;;16.23;8.40;;;;;;;;;;5044116;28;20416;-82
2023/01/19 13:42:52;;;;;;;14.13;8.10;;;;;;;;;;5034036;28;20434;-81
2023/01/19 13:45:28;;;;;;;13.75;8.15;;;;;;;;;;5037991;28;20427;-82
2023/01/19 13:48:02;;;;;;;15.98;8.13;;;;;;;;;;5046052;28;20931;-81
2023/01/19 13:50:37;;;;;;;16.85;9.15;;;;;;;;;;5031768;28;20426;-81
2023/01/19 13:53:14;;;;;;;14.98;8.10;;;;;;;;;;5030724;28;20403;-82
2023/01/19 13:55:48;;;;;;;15.15;8.68;;;;;;;;;;5040372;28;20767;-81
2023/01/19 13:58:22;;;;;;;17.65;9.13;;;;;;;;;;5040532;28;20775;-82
2023/01/19 14:00:50;;;;;;;14.98;8.68;;;;;;;;;;5044240;28;20434;-82
2023/01/19 14:03:24;;;;;;;15.18;8.50;;;;;;;;;;5035913;28;20419;-82
2023/01/19 14:05:56;;;;;;;15.70;8.60;;;;;;;;;;5038001;28;20425;-82
2023/01/19 14:08:31;;;;;;;15.00;8.55;;;;;;;;;;5030606;28;20435;-82
2023/01/19 14:11:06;;;;;;;14.57;8.02;;;;;;;;;;5041420;28;20428;-82
2023/01/19 14:13:43;;;;;;;15.30;8.73;;;;;;;;;;5028595;28;20420;-82
2023/01/19 14:16:19;;;;;;;14.30;8.35;;;;;;;;;;5035699;28;20427;-83
2023/01/19 14:18:58;;;;;;;15.63;8.77;;;;;;;;;;5035806;28;20408;-81
2023/01/19 14:21:38;;;;;;;13.70;8.35;;;;;;;;;;5035840;28;20420;-82
2023/01/19 14:24:07;;;;;;;16.20;8.32;;;;;;;;;;5037408;28;20419;-82
2023/01/19 14:26:45;;;;;;;15.80;8.50;;;;;;;;;;5045151;28;20415;-82
2023/01/19 14:29:19;;;;;;;15.55;8.65;;;;;;;;;;5037102;28;20935;-81
2023/01/19 14:31:53;;;;;;;15.45;8.82;;;;;;;;;;5030529;28;20431;-81
2023/01/19 14:34:31;;;;;;;15.75;8.77;;;;;;;;;;5042670;28;21123;-82
2023/01/19 14:37:05;;;;;;;15.02;8.82;;;;;;;;;;5034854;28;20485;-82
2023/01/19 14:39:37;;;;;;;14.88;8.70;;;;;;;;;;5035360;28;20442;-82
2023/01/19 14:42:14;;;;;;;16.40;8.75;;;;;;;;;;5027345;28;20435;-82
2023/01/19 14:44:46;;;;;;;15.07;8.70;;;;;;;;;;5050252;28;20431;-81
2023/01/19 14:47:30;;;;;;;17.08;9.07;;;;;;;;;;5039399;28;20419;-81
2023/01/19 14:50:09;;;;;;;16.10;8.73;;;;;;;;;;5036316;28;20439;-82
2023/01/19 14:52:43;;;;;;;16.93;8.80;;;;;;;;;;5049025;28;20427;-81
2023/01/19 14:55:18;;;;;;;17.15;9.02;;;;;;;;;;5040538;28;20451;-81
2023/01/19 14:57:47;;;;;;;16.98;8.82;;;;;;;;;;5045992;28;20412;-81
2023/01/19 15:00:16;;;;;;;16.15;8.70;;;;;;;;;;5039630;28;20416;-80
2023/01/19 15:02:49;;;;;;;15.70;8.93;;;;;;;;;;5057869;28;20435;-80
2023/01/19 15:05:17;;;;;;;16.95;9.25;;;;;;;;;;5052565;28;20427;-79
2023/01/19 15:07:50;;;;;;;16.73;8.68;;;;;;;;;;5040254;28;20435;-80
2023/01/19 15:10:22;;;;;;;17.80;9.13;;;;;;;;;;5060617;28;20434;-80
2023/01/19 15:12:57;;;;;;;18.15;8.70;;;;;;;;;;5042028;28;20420;-80
2023/01/19 15:15:27;;;;;;;17.02;9.10;;;;;;;;;;5041756;28;20470;-80